Station: Mitchell

  Atmospheric Gas Attenuation - ITU Rec 676-11   --------------- db/100km ---------------
Date Time Temp RH % AH g/m3 Dew Point Wind Direction Speed kph Gust kph Barometer mB Rainfall Since 9am 24GHz 47GHz 76GHz 122GHz 134GHz 241GHz
26 09:00 26.7 67 16.96 20.2 4 1009.2 0 36.5 35.4 66.1 174.7 189.2 657.3
25 09:00 24.2 75 16.5 19.6 7 1010.2 0.8 35.7 35.7 66.3 175.1 189.0 656.0
24 09:00 27.4 28 7.37 7.3 4 1009.9 0 16.4 20.6 29.5 77.2 69.5 238.7
23 09:00 28.6 53 14.9 18.1 4 1008 2 32.0 31.1 55.9 147.7 156.6 543.8
22 09:00 27.8 49 13.18 16.2 0 1007.6 0 28.5 28.7 49.7 131.0 135.9 471.6
21 09:00 28.4 61 16.96 20.3 0 1008 1 36.3 34.6 64.6 170.7 184.9 642.4
20 09:00 26.6 59 14.85 18 4 1011.3 0 32.1 31.9 57.3 151.4 160.4 556.9
19 09:00 25.7 62 14.84 18 4 1014.8 0 32.1 32.4 58.1 153.5 162.6 564.3
18 09:00 24 58 12.62 15.3 4 1015.8 0 27.5 29.3 50.3 132.5 136.2 472.0
17 09:00 24.6 58 13.05 15.8 7 1015.4 0 28.4 29.8 51.6 136.0 140.8 488.0
16 09:00 26.7 56 14.18 17.4 7 1013.4 0 30.6 30.8 54.6 144.2 151.5 525.8
15 09:00 24.4 79 17.58 20.5 4 1010.9 0 38.0 37.6 71.0 187.8 204.5 710.2
14 09:00 24.5 72 16.11 19.1 4 1008.2 36 34.9 34.7 64.2 169.6 182.3 632.9
13 09:00 27.9 53 14.34 17.6 7 1008.5 0 30.9 30.5 54.2 143.1 150.7 523.2
12 09:00 26.4 55 13.69 16.7 7 1010.9 0 29.6 30.1 52.7 139.2 145.4 504.3
11 09:00 24.3 71 15.71 18.7 7 1011.7 28 34.1 34.3 62.8 165.8 177.5 616.1
10 09:00 24.9 65 14.88 18 7 1010.3 0 32.3 32.5 58.7 154.9 164.3 570.2
09 09:00 27.9 58 15.69 19 4 1009.5 0 33.7 32.7 59.7 157.8 168.8 586.2
08 09:00 27.3 49 12.82 15.7 4 1008.1 0 27.8 28.3 48.6 128.2 132.3 458.9
07 09:00 28 57 15.5 18.8 4 1006.6 18 33.3 32.3 58.7 155.1 165.7 575.3
06 09:00 30.9 49 15.6 19.1 7 1005.6 0 33.3 31.4 56.9 150.5 160.7 558.5
05 09:00 29.6 45 13.36 16.7 4 1008.3 0 28.7 28.4 49.3 130.0 135.2 469.0
04 09:00 27.2 56 14.57 17.7 7 1009.7 0 31.4 31.2 55.7 147.0 155.3 539.0
03 09:00 29.2 43 12.49 15.4 4 1007.6 0 26.9 27.2 46.2 121.9 125.1 433.8
02 09:00 23.7 69 14.76 17.7 4 1008.4 0 32.1 32.7 58.9 155.7 165.0 572.5
01 09:00 28.3 51 14.1 17.2 4 1011.5 0 30.3 30.1 53.1 140.2 147.2 510.9
31 09:00 29.1 46 13.29 16.3 4 1010.8 0 28.6 28.5 49.4 130.4 135.4 469.8
30 09:00 27.4 54 14.21 17.4 4 1009.9 0 30.7 30.5 54.1 142.8 150.2 521.2
29 09:00 27.2 50 13.01 16 7 1010.5 0 28.2 28.7 49.5 130.6 135.1 468.7
28 09:00 28.9 56 16 19.3 7 1010.1 0 34.3 32.9 60.3 159.3 170.9 593.5
27 09:00 30.1 49 14.94 18.5 4 1006.7 0 32.0 30.6 54.9 145.2 154.0 534.8
26 09:00 27.9 52 14.06 17.4 4 1006 0 30.3 30.0 52.9 139.8 146.8 509.6
25 09:00 27.9 50 13.52 16.7 7 1009.6 0 29.2 29.2 51.0 134.6 140.3 486.8
24 09:00 27.4 48 12.63 15.5 4 1012.6 0 27.3 28.1 48.0 126.7 130.2 451.5
23 09:00 25.5 68 16.1 19.2 0 1012.2 18 34.8 34.5 63.5 167.8 180.3 626.0
22 09:00 25.4 63 14.83 17.9 4 1012.4 0 32.1 32.4 58.2 153.6 162.8 565.1
21 09:00 26.6 56 14.1 17.3 4 1015.3 0 30.5 30.8 54.5 143.7 150.9 523.5
20 09:00 27.7 58 15.52 18.8 7 1015.5 0 33.3 32.8 59.5 157.1 167.7 582.2
19 09:00 23.8 81 17.42 20.3 4 1014.2 10 37.7 37.7 71.0 187.8 204.2 709.1
18 09:00 19.4 80 13.35 15.9 4 1013.1 32 29.4 32.1 56.3 148.5 154.6 535.7
17 09:00 26.9 20 5.12 2.3 4 1012.2 0 11.8 17.9 22.9 59.4 47.2 160.2
16 09:00 26.5 26 6.51 5.5 4 1009.7 0 14.7 19.6 27.1 70.8 61.2 209.6
15 09:00 28.5 45 12.58 15.5 4 1008.6 0 27.2 27.6 47.0 124.0 127.4 441.8
14 09:00 26.9 48 12.29 15 4 1012.2 0 26.7 27.7 47.0 123.9 126.8 439.3
13 09:00 27.9 50 13.52 16.7 4 1013.8 0 29.2 29.4 51.2 135.1 140.7 488.3
12 09:00 25.6 52 12.38 15 4 1013.9 0 26.9 28.4 48.2 127.1 130.2 451.2
11 09:00 24.1 61 13.35 16.2 4 1014.1 0 29.1 30.4 53.1 140.0 145.6 504.6
10 09:00 23.4 62 13.04 15.9 4 1015 0.2 28.5 30.2 52.3 137.9 142.8 494.9
09 09:00 19.2 81 13.36 15.9 0 1015 5 29.4 32.2 56.6 149.3 155.4 538.4
08 09:00 18.9 91 14.74 17.4 7 1013.7 14 32.4 34.8 63.0 166.2 176.2 610.8
07 09:00 21.3 96 17.89 20.7 4 1011.2 3 39.0 39.6 75.5 199.6 218.1 757.1
06 09:00 29.1 66 19.06 22.1 4 1008.9 1 40.7 38.1 73.1 193.6 213.1 740.6
05 09:00 27.6 67 17.83 20.9 4 1008.2 3 38.3 36.5 69.0 182.6 199.3 692.3
04 09:00 22.4 96 19.06 21.8 4 1007.1 26 41.4 41.2 79.8 211.2 232.8 808.2
03 09:00 28 57 15.5 18.8 4 1006.7 1 33.3 32.3 58.7 155.2 165.7 575.4
02 09:00 29 58 16.66 20 0 1009.5 0 35.7 34.0 62.9 166.3 179.5 623.7
01 09:00 26.4 57 14.19 17.4 4 1012.1 0 30.7 30.9 54.8 144.7 152.1 527.8
31 09:00 26.4 59 14.69 17.8 7 1012 0 31.7 31.7 56.8 150.1 158.8 551.1
30 09:00 25.4 75 17.66 20.6 4 1011.3 32 38.1 37.3 70.5 186.4 203.1 705.3
29 09:00 24.2 79 17.38 20.4 0 1010.2 1 37.6 37.3 70.2 185.7 202.0 701.3
28 09:00 28.2 48 13.2 16.3 7 1010.7 0 28.5 28.7 49.6 131.0 135.8 471.2
27 09:00 28.1 42 11.49 14.3 4 1013.8 0 24.9 26.2 43.4 114.4 115.3 399.4
26 09:00 26.1 50 12.24 15 7 1015 0 26.6 28.0 47.4 125.0 127.7 442.5
25 09:00 22.6 62 12.45 15 4 1014.4 3 27.3 29.5 50.4 132.8 136.3 472.1
24 09:00 26.3 54 13.37 16.4 4 1013.9 0 29.0 29.7 51.7 136.3 141.7 491.5
23 09:00 23.4 47 9.88 11.7 7 1014.3 0.4 21.8 25.2 40.0 105.1 102.4 353.6
22 09:00 20.4 97 17.16 19.9 7 1008.4 6 37.5 38.5 72.7 192.2 208.8 724.5
21 09:00 28.8 66 18.75 21.9 7 1007.5 15 40.1 37.6 72.0 190.4 209.2 727.1
20 09:00 32.4 52 17.94 21.4 0 1009.1 0 38.0 34.7 65.4 173.0 188.7 656.3
19 09:00 30.9 54 17.19 20.7 7 1010.4 3 36.6 34.1 63.6 168.2 182.4 633.9
18 09:00 32.6 44 15.34 18.8 7 1007.8 0 32.6 30.4 54.8 144.9 154.3 536.1
17 09:00 32 47 15.87 19.4 7 1006.2 1 33.8 31.4 57.2 151.3 162.0 563.1
16 09:00 30 52 15.77 19.2 11 1007.4 0 33.7 32.0 58.4 154.2 165.1 573.5
15 09:00 24.7 75 16.98 20.1 7 1008.3 0.4 36.7 36.2 67.9 179.4 194.5 675.2
14 09:00 24.2 53 11.66 14.2 7 1010.2 0 25.5 27.5 46.1 121.4 122.9 425.7
13 09:00 24 54 11.75 14.1 4 1014.7 0 25.7 27.9 46.8 123.2 124.8 432.3
12 09:00 23 55 11.3 13.5 4 1019.3 3 24.8 27.7 45.8 120.5 121.1 419.0
11 09:00 25.2 49 11.41 13.8 7 1016.1 0 24.9 27.1 44.8 118.0 118.8 411.4
10 09:00 28.1 50 13.67 16.9 4 1016.2 0 29.4 29.7 51.8 136.6 142.6 494.6
09 09:00 26.6 18 4.53 0.5 7 1016.2 0 10.6 17.4 21.3 55.2 41.8 141.1
08 09:00 24.3 25 5.53 3.4 7 1014.4 0 12.7 19.0 24.9 64.7 52.9 180.1
07 09:00 30.9 48 15.28 18.7 4 1008.8 0.8 32.6 31.0 55.8 147.5 157.0 545.5
06 09:00 34.4 25 9.58 11.6 4 1008 0.4 20.7 21.8 33.8 88.8 85.8 296.7
05 09:00 36.1 23 9.63 11.9 7 1010.6 0 20.7 21.5 33.4 87.7 84.7 293.1
04 09:00 30.2 40 12.26 15.3 4 1015.6 0.4 26.4 26.8 45.2 119.0 121.6 421.5
03 09:00 33.2 43 15.48 19.2 7 1014.6 0 32.8 30.7 55.3 146.1 155.6 540.9
02 09:00 36.6 24 10.31 13.2 7 1013 0 22.0 22.4 35.4 93.0 91.3 316.3
01 09:00 34.3 27 10.3 13.1 4 1012.8 0 22.1 22.9 36.3 95.5 93.8 324.7
30 09:00 34.4 26 9.97 12.3 4 1010.8 0 21.4 22.4 35.1 92.4 90.0 311.6
29 09:00 30.7 77 24.25 26.3 4 1011.3 0 51.4 47.1 95.9 254.1 287.6 1000.0
28 09:00 30.5 40 12.46 15.7 4 1014.5 0 26.8 27.0 45.7 120.4 123.4 427.9
27 09:00 31.5 45 14.8 18.2 4 1013.7 0 31.6 30.2 53.8 142.1 150.3 522.0
26 09:00 29.6 39 11.58 14.3 11 1011.1 0 25.0 25.8 42.9 112.9 114.0 394.9
25 09:00 31.1 31 9.98 12.2 4 1007.7 0 21.6 23.1 36.5 95.9 93.6 323.8
24 09:00 30 37 11.22 13.8 4 1007.1 0 24.3 25.1 41.2 108.5 108.9 377.1
23 09:00 29.6 35 10.39 12.5 4 1012.8 0 22.6 24.2 38.7 101.9 100.4 347.3
22 09:00 29.8 36 10.8 13.5 0 1017.5 0 23.4 24.9 40.3 105.9 105.2 364.2
21 09:00 29.7 40 11.94 15 0 1018.4 0 25.7 26.6 44.4 117.0 118.8 411.6
20 09:00 29.4 38 11.16 13.6 7 1018.7 0 24.1 25.6 41.8 109.9 110.0 381.0
19 09:00 29.1 54 15.6 18.9 4 1018.4 0 33.4 32.5 58.9 155.6 166.1 576.8

Last Refresh: 27-Feb-2021 02:27:21

Most of the information presented on this site is sourced from the Bureau of Meteorology.  Copyright in all material sourced from the Bureau of Meteorology resides with the Commonwealth of Australia.